Time;durP1;ratioP1;P1;durP2;ratioP2;P2;SDS_P1;SDS_P2;PMS_P1;PMS_P2;Temp;Humidity;BMP_temperature;BMP_pressure;BME280_temperature;BME280_humidity;BME280_pressure;Samples;Min_cycle;Max_cycle;Signal;HPM_P1;HPM_P2
2021/01/12 00:00:29;;;;;;;23.73;11.47;;;0.40;99.90;;;;;;5049168;28;20229;-65
2021/01/12 00:02:55;;;;;;;18.73;10.93;;;0.40;99.90;;;;;;5051209;28;20561;-65
2021/01/12 00:05:21;;;;;;;21.13;12.10;;;0.40;99.90;;;;;;5050705;28;20414;-64
2021/01/12 00:07:48;;;;;;;13.53;8.60;;;0.40;99.90;;;;;;5051032;28;20904;-64
2021/01/12 00:10:14;;;;;;;18.27;11.07;;;0.40;99.90;;;;;;5050986;28;20175;-65
2021/01/12 00:12:39;;;;;;;31.87;15.37;;;0.40;99.90;;;;;;5050547;28;20409;-66
2021/01/12 00:15:06;;;;;;;22.73;12.00;;;0.40;99.90;;;;;;5050949;28;20178;-65
2021/01/12 00:17:32;;;;;;;22.17;12.43;;;0.40;99.90;;;;;;5050895;28;20178;-65
2021/01/12 00:19:58;;;;;;;26.20;14.40;;;0.40;99.90;;;;;;5050956;28;20997;-64
2021/01/12 00:22:24;;;;;;;21.13;11.13;;;0.40;99.90;;;;;;5044063;28;20409;-65
2021/01/12 00:24:50;;;;;;;16.47;9.20;;;0.40;99.90;;;;;;5050567;28;20163;-65
2021/01/12 00:27:20;;;;;;;21.13;14.37;;;0.40;99.90;;;;;;5050456;28;20573;-65
2021/01/12 00:29:45;;;;;;;20.97;12.20;;;0.40;99.90;;;;;;5030300;28;20438;-64
2021/01/12 00:32:30;;;;;;;33.27;18.07;;;0.40;99.90;;;;;;5044958;28;20767;-65
2021/01/12 00:34:56;;;;;;;30.47;13.67;;;0.50;99.90;;;;;;5048047;28;20593;-64
2021/01/12 00:37:23;;;;;;;27.63;13.00;;;0.40;99.90;;;;;;5054860;28;20532;-65
2021/01/12 00:39:49;;;;;;;23.77;13.93;;;0.40;99.90;;;;;;5047772;28;20250;-66
2021/01/12 00:42:15;;;;;;;24.13;12.87;;;0.50;99.90;;;;;;5040301;28;20816;-65
2021/01/12 00:44:41;;;;;;;24.73;13.87;;;0.40;99.90;;;;;;5031429;28;20180;-65
2021/01/12 00:47:07;;;;;;;25.77;15.70;;;0.50;99.90;;;;;;5040064;28;20589;-66
2021/01/12 00:49:34;;;;;;;25.20;16.17;;;0.50;99.90;;;;;;5034760;28;20175;-64
2021/01/12 00:51:59;;;;;;;17.20;9.40;;;0.50;99.90;;;;;;5044238;28;20552;-65
2021/01/12 00:54:25;;;;;;;26.63;17.03;;;0.50;99.90;;;;;;5044198;28;20897;-65
2021/01/12 00:56:52;;;;;;;20.33;10.40;;;0.50;99.90;;;;;;5053828;28;20171;-65
2021/01/12 00:59:18;;;;;;;22.70;13.27;;;0.60;99.90;;;;;;5054381;28;20408;-66
2021/01/12 01:01:44;;;;;;;10.40;7.57;;;0.50;99.90;;;;;;5054579;28;20460;-65
2021/01/12 01:04:13;;;;;;;28.80;14.87;;;0.60;99.90;;;;;;5054293;28;20290;-64
2021/01/12 01:06:39;;;;;;;18.43;9.87;;;0.50;99.90;;;;;;5054256;28;20413;-66
2021/01/12 01:09:05;;;;;;;24.67;15.17;;;0.60;99.90;;;;;;5054165;28;20437;-64
2021/01/12 01:11:30;;;;;;;26.00;12.17;;;0.60;99.90;;;;;;5054396;28;20190;-64
2021/01/12 01:13:59;;;;;;;22.53;12.00;;;0.60;99.90;;;;;;5054168;28;20185;-64
2021/01/12 01:16:34;;;;;;;24.20;15.00;;;0.60;99.90;;;;;;5054123;28;20199;-65
2021/01/12 01:19:00;;;;;;;18.77;9.43;;;0.60;99.90;;;;;;5054254;28;20544;-64
2021/01/12 01:21:27;;;;;;;24.20;14.07;;;0.60;99.90;;;;;;5053723;28;20468;-64
2021/01/12 01:23:52;;;;;;;23.40;13.67;;;0.60;99.90;;;;;;5054120;28;20421;-65
2021/01/12 01:26:19;;;;;;;21.27;12.67;;;0.50;99.90;;;;;;5053843;28;20424;-64
2021/01/12 01:28:44;;;;;;;30.37;17.63;;;0.50;99.90;;;;;;5042384;28;20215;-65
2021/01/12 01:31:10;;;;;;;33.20;19.20;;;0.50;99.90;;;;;;5054049;28;20413;-64
2021/01/12 01:33:36;;;;;;;20.23;11.00;;;0.50;99.90;;;;;;5053732;28;20257;-64
2021/01/12 01:36:02;;;;;;;21.23;12.20;;;0.50;99.90;;;;;;5054145;28;20186;-64
2021/01/12 01:38:27;;;;;;;16.07;9.27;;;0.50;99.90;;;;;;5053922;28;20190;-65
2021/01/12 01:41:05;;;;;;;25.67;14.90;;;0.50;99.90;;;;;;5053818;28;20237;-64
2021/01/12 01:43:30;;;;;;;23.57;13.83;;;0.50;99.90;;;;;;5052072;28;20183;-65
2021/01/12 01:45:56;;;;;;;19.60;11.90;;;0.50;99.90;;;;;;5044607;28;20433;-66
2021/01/12 01:48:22;;;;;;;26.63;15.70;;;0.50;99.90;;;;;;5033811;28;20186;-67
2021/01/12 01:50:47;;;;;;;17.40;10.93;;;0.50;99.90;;;;;;5033404;28;20656;-65
2021/01/12 01:53:13;;;;;;;19.00;11.77;;;0.50;99.90;;;;;;5039224;28;20415;-65
2021/01/12 01:55:40;;;;;;;21.00;11.47;;;0.60;99.90;;;;;;5037529;28;20183;-65
2021/01/12 01:58:06;;;;;;;23.80;12.30;;;0.60;99.90;;;;;;5040565;28;20638;-65
2021/01/12 02:00:36;;;;;;;14.77;9.43;;;0.60;99.90;;;;;;5052226;28;20483;-64
2021/01/12 02:03:09;;;;;;;21.90;12.57;;;0.60;99.90;;;;;;5053276;28;20471;-66
2021/01/12 02:05:40;;;;;;;20.17;12.73;;;0.60;99.90;;;;;;5053573;28;20416;-64
2021/01/12 02:08:22;;;;;;;12.53;6.77;;;0.60;99.90;;;;;;5052034;28;20436;-65
2021/01/12 02:10:50;;;;;;;19.03;11.37;;;0.60;99.90;;;;;;5051287;28;20448;-65
2021/01/12 02:13:21;;;;;;;16.23;9.40;;;0.60;99.90;;;;;;5030786;28;20962;-65
2021/01/12 02:15:47;;;;;;;21.63;13.93;;;0.60;99.90;;;;;;5053213;28;20422;-66
2021/01/12 02:18:14;;;;;;;21.27;11.53;;;0.60;99.90;;;;;;5052907;28;20410;-64
2021/01/12 02:20:41;;;;;;;20.70;12.03;;;0.60;99.90;;;;;;5052947;28;20453;-65
2021/01/12 02:23:32;;;;;;;20.20;11.20;;;0.60;99.90;;;;;;5031720;28;20561;-65
2021/01/12 02:25:58;;;;;;;22.77;13.67;;;0.60;99.90;;;;;;5052410;28;20418;-65
2021/01/12 02:28:30;;;;;;;24.37;15.83;;;0.70;99.90;;;;;;5036095;28;20831;-66
2021/01/12 02:30:57;;;;;;;19.93;8.67;;;0.70;99.90;;;;;;5051628;28;20414;-65
2021/01/12 02:33:23;;;;;;;28.70;17.13;;;0.70;99.90;;;;;;5052491;28;20764;-66
2021/01/12 02:35:53;;;;;;;13.03;9.27;;;0.70;99.90;;;;;;5052568;28;20436;-65
2021/01/12 02:38:19;;;;;;;11.53;7.33;;;0.70;99.90;;;;;;5052376;28;20207;-65
2021/01/12 02:40:45;;;;;;;23.37;13.20;;;0.70;99.90;;;;;;5052368;28;20519;-65
2021/01/12 02:43:11;;;;;;;26.33;16.23;;;0.70;99.90;;;;;;5052647;28;20418;-64
2021/01/12 02:45:36;;;;;;;16.93;10.50;;;0.70;99.90;;;;;;5052700;28;20257;-65
2021/01/12 02:48:02;;;;;;;21.90;13.23;;;0.70;99.90;;;;;;5052309;28;20176;-65
2021/01/12 02:50:27;;;;;;;21.23;11.67;;;0.80;99.90;;;;;;5052384;28;20231;-64
2021/01/12 02:52:53;;;;;;;13.33;7.87;;;0.70;99.90;;;;;;5034289;28;20709;-66
2021/01/12 02:55:19;;;;;;;22.90;11.93;;;0.70;99.90;;;;;;5051790;28;20258;-65
2021/01/12 02:57:44;;;;;;;20.53;10.83;;;0.80;99.90;;;;;;5052310;28;20652;-65
2021/01/12 03:00:13;;;;;;;16.40;9.33;;;0.80;99.90;;;;;;5052056;28;20234;-66
2021/01/12 03:02:39;;;;;;;18.83;11.17;;;0.80;99.90;;;;;;5051931;28;20194;-65
2021/01/12 03:05:06;;;;;;;19.43;11.73;;;0.70;99.90;;;;;;5052149;28;20429;-64
2021/01/12 03:07:31;;;;;;;23.17;14.80;;;0.80;99.90;;;;;;5051870;28;20799;-65
2021/01/12 03:09:57;;;;;;;18.23;11.00;;;0.80;99.90;;;;;;5051955;28;20429;-65
2021/01/12 03:12:23;;;;;;;16.07;9.83;;;0.70;99.90;;;;;;5052041;28;20599;-65
2021/01/12 03:14:49;;;;;;;17.77;10.43;;;0.70;99.90;;;;;;5051730;28;20179;-64
2021/01/12 03:17:15;;;;;;;16.00;9.30;;;0.70;99.90;;;;;;5051861;28;20504;-65
2021/01/12 03:19:41;;;;;;;17.13;9.37;;;0.70;99.90;;;;;;5051937;28;20182;-64
2021/01/12 03:22:08;;;;;;;15.20;8.00;;;0.70;99.90;;;;;;5033851;28;20167;-63
2021/01/12 03:24:33;;;;;;;18.50;9.20;;;0.70;99.90;;;;;;5051809;28;20919;-65
2021/01/12 03:26:59;;;;;;;14.73;8.23;;;0.70;99.90;;;;;;5051807;28;20432;-65
2021/01/12 03:29:31;;;;;;;20.13;10.93;;;0.70;99.90;;;;;;5050126;28;20272;-65
2021/01/12 03:31:57;;;;;;;19.27;11.03;;;0.70;99.90;;;;;;5051546;28;20179;-64
2021/01/12 03:34:23;;;;;;;14.43;8.17;;;0.70;99.90;;;;;;5051458;28;20436;-64
2021/01/12 03:36:49;;;;;;;22.73;12.27;;;0.70;99.90;;;;;;5051250;28;20481;-64
2021/01/12 03:39:14;;;;;;;20.97;12.93;;;0.70;99.90;;;;;;5051640;28;20975;-64
2021/01/12 03:41:40;;;;;;;16.07;8.83;;;0.70;99.90;;;;;;5050340;28;20557;-65
2021/01/12 03:44:06;;;;;;;17.13;9.07;;;0.60;99.90;;;;;;5051412;28;20171;-64
2021/01/12 03:46:31;;;;;;;21.63;12.80;;;0.70;99.90;;;;;;5051433;28;20171;-65
2021/01/12 03:48:57;;;;;;;16.47;7.77;;;0.60;99.90;;;;;;5051170;28;20177;-64
2021/01/12 03:51:24;;;;;;;16.63;10.70;;;0.60;99.90;;;;;;5051387;28;20190;-64
2021/01/12 03:53:51;;;;;;;25.73;13.73;;;0.60;99.90;;;;;;5050180;28;20186;-64
2021/01/12 03:56:17;;;;;;;21.40;11.93;;;0.60;99.90;;;;;;5051057;28;20429;-64
2021/01/12 03:58:42;;;;;;;20.93;11.57;;;0.50;99.90;;;;;;5051372;28;20969;-64
2021/01/12 04:01:09;;;;;;;23.37;13.53;;;0.50;99.90;;;;;;5051056;28;20203;-65
2021/01/12 04:03:35;;;;;;;23.93;13.40;;;0.40;99.90;;;;;;5033195;28;20657;-65
2021/01/12 04:06:02;;;;;;;21.63;12.57;;;0.40;99.90;;;;;;5050748;28;20417;-63
2021/01/12 04:08:27;;;;;;;21.60;12.67;;;0.30;99.90;;;;;;5050472;28;20312;-64
2021/01/12 04:10:53;;;;;;;28.13;15.70;;;0.30;99.90;;;;;;5050935;28;20489;-64
2021/01/12 04:13:19;;;;;;;28.13;14.87;;;0.20;99.90;;;;;;5050784;28;20608;-64
2021/01/12 04:15:45;;;;;;;24.90;14.23;;;0.20;99.90;;;;;;5050997;28;20183;-64
2021/01/12 04:18:10;;;;;;;29.50;14.83;;;0.20;99.90;;;;;;5051336;28;20186;-65
2021/01/12 04:20:36;;;;;;;31.67;17.03;;;0.20;99.90;;;;;;5050692;28;20206;-65
2021/01/12 04:23:02;;;;;;;22.60;13.10;;;0.20;99.90;;;;;;5051266;28;20258;-64
2021/01/12 04:25:27;;;;;;;23.13;13.33;;;0.30;99.90;;;;;;5050742;28;20271;-65
2021/01/12 04:27:53;;;;;;;28.97;14.37;;;0.30;99.90;;;;;;5051158;28;20207;-64
2021/01/12 04:30:19;;;;;;;20.47;12.10;;;0.30;99.90;;;;;;5050947;28;20632;-64
2021/01/12 04:32:44;;;;;;;26.77;12.30;;;0.20;99.90;;;;;;5031406;28;20256;-64
2021/01/12 04:35:10;;;;;;;20.93;12.80;;;0.20;99.90;;;;;;5050893;28;20183;-64
2021/01/12 04:37:36;;;;;;;24.03;14.23;;;0.20;99.90;;;;;;5050616;28;20183;-66
2021/01/12 04:40:03;;;;;;;28.47;13.70;;;0.20;99.90;;;;;;5050699;28;20202;-65
2021/01/12 04:42:32;;;;;;;25.33;13.67;;;0.20;99.90;;;;;;5050534;28;20546;-65
2021/01/12 04:44:59;;;;;;;30.50;15.93;;;0.20;99.90;;;;;;5050732;28;20425;-64
2021/01/12 04:47:25;;;;;;;33.87;19.43;;;0.20;99.90;;;;;;5050555;28;20500;-65
2021/01/12 04:49:50;;;;;;;24.73;14.73;;;0.20;99.90;;;;;;5050436;28;20501;-64
2021/01/12 04:52:16;;;;;;;19.03;11.23;;;0.10;99.90;;;;;;5050675;28;20171;-64
2021/01/12 04:54:42;;;;;;;26.07;14.50;;;0.10;99.90;;;;;;5050669;28;20186;-65
2021/01/12 04:57:12;;;;;;;27.53;13.00;;;0.10;99.90;;;;;;5050881;28;20863;-66
2021/01/12 04:59:38;;;;;;;28.27;14.50;;;0.10;99.90;;;;;;5050628;28;20952;-65
2021/01/12 05:02:04;;;;;;;26.80;15.13;;;0.10;99.90;;;;;;5050391;28;20514;-65
2021/01/12 05:04:32;;;;;;;33.90;18.93;;;0.10;99.90;;;;;;5050456;28;20657;-65
2021/01/12 05:06:58;;;;;;;28.47;14.53;;;0.10;99.90;;;;;;5050286;28;20605;-66
2021/01/12 05:09:26;;;;;;;30.33;15.57;;;0.10;99.90;;;;;;5050440;28;20441;-65
2021/01/12 05:11:56;;;;;;;33.60;19.57;;;0.10;99.90;;;;;;5050353;28;20743;-65
2021/01/12 05:14:25;;;;;;;26.63;15.83;;;0.10;99.90;;;;;;5050700;28;20414;-64
2021/01/12 05:16:57;;;;;;;32.80;19.00;;;0.10;99.90;;;;;;5050161;28;20429;-64
2021/01/12 05:19:27;;;;;;;31.03;16.63;;;0.00;99.90;;;;;;5053115;28;20429;-66
2021/01/12 05:21:57;;;;;;;28.93;15.37;;;0.10;99.90;;;;;;5054115;28;20453;-65
2021/01/12 05:24:22;;;;;;;26.73;16.27;;;0.10;99.90;;;;;;5053093;28;20420;-64
2021/01/12 05:26:48;;;;;;;22.77;13.60;;;0.10;99.90;;;;;;5054005;28;20413;-65
2021/01/12 05:29:14;;;;;;;47.73;23.37;;;0.10;99.90;;;;;;5053078;28;20207;-66
2021/01/12 05:31:44;;;;;;;28.93;15.53;;;0.20;99.90;;;;;;5053608;28;20541;-64
2021/01/12 05:34:10;;;;;;;38.93;22.50;;;0.10;99.90;;;;;;5052545;28;20457;-64
2021/01/12 05:36:50;;;;;;;32.57;16.83;;;0.20;99.90;;;;;;5053408;28;20460;-63
2021/01/12 05:39:21;;;;;;;23.17;12.73;;;0.20;99.90;;;;;;5053990;28;20421;-64
2021/01/12 05:41:50;;;;;;;32.87;16.33;;;0.30;99.90;;;;;;5053714;28;20457;-64
2021/01/12 05:44:17;;;;;;;32.37;17.37;;;0.30;99.90;;;;;;5052601;28;20429;-63
2021/01/12 05:46:44;;;;;;;24.87;12.97;;;0.30;99.90;;;;;;5053248;28;20428;-64
2021/01/12 05:49:10;;;;;;;17.87;12.17;;;0.30;99.90;;;;;;5053543;28;20428;-66
2021/01/12 05:51:47;;;;;;;28.80;16.77;;;0.30;99.90;;;;;;5053211;28;20767;-64
2021/01/12 05:54:33;;;;;;;30.37;15.90;;;0.30;99.90;;;;;;5052366;28;20182;-65
2021/01/12 05:57:04;;;;;;;32.07;15.63;;;0.40;99.90;;;;;;5052745;28;20409;-64
2021/01/12 05:59:32;;;;;;;24.07;13.43;;;0.40;99.90;;;;;;5053401;28;20488;-65
2021/01/12 06:02:14;;;;;;;21.37;12.53;;;0.40;99.90;;;;;;5051954;28;20484;-64
2021/01/12 06:04:42;;;;;;;27.10;15.57;;;0.40;99.90;;;;;;5052957;28;20508;-65
2021/01/12 06:07:08;;;;;;;26.33;16.23;;;0.40;99.90;;;;;;5053025;28;20925;-64
2021/01/12 06:09:36;;;;;;;25.73;13.80;;;0.40;99.90;;;;;;5053180;28;20440;-65
2021/01/12 06:12:02;;;;;;;34.47;18.27;;;0.30;99.90;;;;;;5052699;28;20526;-63
2021/01/12 06:14:29;;;;;;;25.80;16.13;;;0.30;99.90;;;;;;5052961;28;20428;-64
2021/01/12 06:16:56;;;;;;;27.53;13.40;;;0.30;99.90;;;;;;5052644;28;20179;-64
2021/01/12 06:19:27;;;;;;;34.80;17.00;;;0.40;99.90;;;;;;5052968;28;20422;-65
2021/01/12 06:21:55;;;;;;;37.43;17.50;;;0.40;99.90;;;;;;5052633;28;20449;-63
2021/01/12 06:24:40;;;;;;;27.37;15.97;;;0.40;99.90;;;;;;5053045;28;20410;-63
2021/01/12 06:27:29;;;;;;;32.50;17.70;;;0.40;99.90;;;;;;5052657;28;20905;-64
2021/01/12 06:29:57;;;;;;;34.77;16.63;;;0.40;99.90;;;;;;5051887;28;20524;-66
2021/01/12 06:32:25;;;;;;;33.70;18.30;;;0.40;99.90;;;;;;5052948;28;20409;-64
2021/01/12 06:34:53;;;;;;;31.60;18.87;;;0.40;99.90;;;;;;5052879;28;20410;-64
2021/01/12 06:37:20;;;;;;;25.10;12.50;;;0.40;99.90;;;;;;5052683;28;20406;-64
2021/01/12 06:39:58;;;;;;;27.57;16.30;;;0.40;99.90;;;;;;5052633;28;20896;-63
2021/01/12 06:42:28;;;;;;;38.53;21.00;;;0.40;99.90;;;;;;5052059;28;20740;-63
2021/01/12 06:44:55;;;;;;;23.53;12.70;;;0.40;99.90;;;;;;5052463;28;20441;-65
2021/01/12 06:47:26;;;;;;;21.07;12.40;;;0.40;99.90;;;;;;5052332;28;20410;-65
2021/01/12 06:50:16;;;;;;;27.67;15.17;;;0.40;99.90;;;;;;5052691;28;20401;-63
2021/01/12 06:52:47;;;;;;;30.43;16.37;;;0.40;99.90;;;;;;5052228;28;20416;-66
2021/01/12 06:55:15;;;;;;;27.70;15.37;;;0.40;99.90;;;;;;5050939;28;20489;-63
2021/01/12 06:57:45;;;;;;;31.67;16.97;;;0.40;99.90;;;;;;5034268;28;20946;-63
2021/01/12 07:00:12;;;;;;;27.30;12.53;;;0.50;99.90;;;;;;5052141;28;20445;-63
2021/01/12 07:02:38;;;;;;;29.47;14.80;;;0.50;99.90;;;;;;5052138;28;20912;-63
2021/01/12 07:05:09;;;;;;;30.97;18.47;;;0.50;99.90;;;;;;5034425;28;20456;-64
2021/01/12 07:07:46;;;;;;;26.60;14.87;;;0.50;99.90;;;;;;5052305;28;20182;-65
2021/01/12 07:10:13;;;;;;;28.53;16.03;;;0.50;99.90;;;;;;5052113;28;20459;-63
2021/01/12 07:12:40;;;;;;;24.97;13.50;;;0.50;99.90;;;;;;5051982;28;20509;-65
2021/01/12 07:15:19;;;;;;;21.23;11.50;;;0.50;99.90;;;;;;5052022;28;20429;-65
2021/01/12 07:17:50;;;;;;;27.40;14.63;;;0.50;99.90;;;;;;5051601;28;20418;-64
2021/01/12 07:20:18;;;;;;;26.17;13.53;;;0.60;99.90;;;;;;5051870;28;20457;-65
2021/01/12 07:23:00;;;;;;;28.80;16.50;;;0.60;99.90;;;;;;5051839;28;20463;-63
2021/01/12 07:25:29;;;;;;;16.23;8.97;;;0.60;99.90;;;;;;5052082;28;20836;-64
2021/01/12 07:28:16;;;;;;;21.17;12.10;;;0.60;99.90;;;;;;5051885;28;20416;-64
2021/01/12 07:30:45;;;;;;;25.17;13.93;;;0.60;99.90;;;;;;5051173;28;20421;-65
2021/01/12 07:33:17;;;;;;;15.53;9.70;;;0.60;99.90;;;;;;5047268;28;20471;-64
2021/01/12 07:35:44;;;;;;;18.57;11.93;;;0.60;99.90;;;;;;5051120;28;20445;-64
2021/01/12 07:38:12;;;;;;;21.77;11.83;;;0.60;99.90;;;;;;5051197;28;20844;-62
2021/01/12 07:40:38;;;;;;;17.90;9.80;;;0.60;99.90;;;;;;5031994;28;20470;-62
2021/01/12 07:43:03;;;;;;;18.43;10.93;;;0.70;99.90;;;;;;5031394;28;20430;-62
2021/01/12 07:45:31;;;;;;;13.73;8.50;;;0.70;99.90;;;;;;5035600;28;20215;-62
2021/01/12 07:47:59;;;;;;;18.20;8.07;;;0.70;99.90;;;;;;5041000;28;20226;-62
2021/01/12 07:50:27;;;;;;;16.80;9.90;;;0.70;99.90;;;;;;5031592;28;20930;-62
2021/01/12 07:52:55;;;;;;;15.43;9.07;;;0.70;99.90;;;;;;5031436;28;20453;-62
2021/01/12 07:55:21;;;;;;;14.20;8.77;;;0.80;99.90;;;;;;5032468;28;20563;-62
2021/01/12 07:57:49;;;;;;;15.17;6.57;;;0.70;99.90;;;;;;5034507;28;20421;-62
2021/01/12 08:00:16;;;;;;;16.07;9.17;;;0.80;99.90;;;;;;5050761;28;20464;-62
2021/01/12 08:02:49;;;;;;;17.30;10.23;;;0.80;99.90;;;;;;5040475;28;20509;-62
2021/01/12 08:05:18;;;;;;;16.33;11.07;;;0.80;99.90;;;;;;5031721;28;20410;-62
2021/01/12 08:07:44;;;;;;;15.13;9.30;;;0.80;99.90;;;;;;5031104;28;20411;-62
2021/01/12 08:10:10;;;;;;;11.73;8.13;;;0.80;99.90;;;;;;5044739;28;20922;-62
2021/01/12 08:12:36;;;;;;;15.23;8.63;;;0.80;99.90;;;;;;5049431;28;20425;-62
2021/01/12 08:15:15;;;;;;;19.07;10.37;;;0.80;99.90;;;;;;5035935;28;20426;-62
2021/01/12 08:17:47;;;;;;;13.47;8.93;;;0.90;99.90;;;;;;5030986;28;20274;-62
2021/01/12 08:20:15;;;;;;;10.40;6.27;;;0.90;99.90;;;;;;5031517;28;20446;-63
2021/01/12 08:22:47;;;;;;;19.23;10.90;;;0.90;99.90;;;;;;5041029;28;20927;-62
2021/01/12 08:25:13;;;;;;;12.80;8.20;;;0.90;99.90;;;;;;5030887;28;20411;-62
2021/01/12 08:27:45;;;;;;;13.93;9.27;;;0.90;99.90;;;;;;5048548;28;20418;-62
2021/01/12 08:30:11;;;;;;;10.67;7.70;;;0.90;99.90;;;;;;5047567;28;20222;-63
2021/01/12 08:32:43;;;;;;;8.63;5.53;;;0.90;99.90;;;;;;5050378;28;20433;-63
2021/01/12 08:35:12;;;;;;;9.50;6.43;;;1.00;99.90;;;;;;5050619;28;20269;-61
2021/01/12 08:37:40;;;;;;;8.50;6.17;;;1.00;99.90;;;;;;5050818;28;20500;-63
2021/01/12 08:40:08;;;;;;;10.40;4.47;;;1.00;99.90;;;;;;5050673;28;21021;-62
2021/01/12 08:42:38;;;;;;;8.37;5.63;;;1.00;99.90;;;;;;5050748;28;20421;-62
2021/01/12 08:45:24;;;;;;;11.90;7.33;;;1.00;99.90;;;;;;5050772;28;20436;-63
2021/01/12 08:47:51;;;;;;;12.07;6.53;;;1.00;99.90;;;;;;5050075;28;20834;-63
2021/01/12 08:50:18;;;;;;;7.17;4.23;;;1.00;99.90;;;;;;5050858;28;20788;-63
2021/01/12 08:52:50;;;;;;;11.07;4.87;;;1.00;99.90;;;;;;5050877;28;20414;-62
2021/01/12 08:55:18;;;;;;;8.47;5.83;;;1.00;99.90;;;;;;5054550;28;20409;-62
2021/01/12 08:58:01;;;;;;;9.50;6.60;;;0.70;99.90;;;;;;5054319;28;20460;-62
2021/01/12 09:00:32;;;;;;;6.57;4.77;;;1.10;99.90;;;;;;5054471;28;20970;-63
2021/01/12 09:02:58;;;;;;;14.67;9.13;;;1.10;99.90;;;;;;5054387;28;20450;-63
2021/01/12 09:05:25;;;;;;;7.10;4.30;;;1.10;99.90;;;;;;5053654;28;20401;-62
2021/01/12 09:08:05;;;;;;;12.33;6.73;;;1.10;99.90;;;;;;5054248;28;20424;-62
2021/01/12 09:10:31;;;;;;;6.20;4.60;;;1.10;99.90;;;;;;5054643;28;20436;-62
2021/01/12 09:12:57;;;;;;;7.90;5.37;;;1.10;99.90;;;;;;5054342;28;20946;-62
2021/01/12 09:15:34;;;;;;;5.23;4.20;;;1.10;99.90;;;;;;5054063;28;20517;-62
2021/01/12 09:18:03;;;;;;;5.80;4.53;;;1.10;99.90;;;;;;5054022;28;20166;-63
2021/01/12 09:20:28;;;;;;;8.50;5.03;;;1.10;99.90;;;;;;5054039;28;20848;-63
2021/01/12 09:23:06;;;;;;;6.77;4.83;;;1.10;99.90;;;;;;5053809;28;20508;-63
2021/01/12 09:25:49;;;;;;;9.47;5.87;;;1.10;99.90;;;;;;5054090;28;20171;-64
2021/01/12 09:28:16;;;;;;;5.00;4.00;;;1.10;99.90;;;;;;5053991;28;20422;-63
2021/01/12 09:30:44;;;;;;;4.97;3.83;;;1.10;99.90;;;;;;5054217;28;20481;-63
2021/01/12 09:33:24;;;;;;;6.00;4.63;;;1.10;99.90;;;;;;5053507;28;20926;-62
2021/01/12 09:36:15;;;;;;;9.23;6.47;;;1.10;99.90;;;;;;5053961;28;20410;-63
2021/01/12 09:38:48;;;;;;;5.37;3.53;;;1.10;99.90;;;;;;5053420;28;20420;-62
2021/01/12 09:41:15;;;;;;;4.53;3.60;;;1.10;99.90;;;;;;5053323;28;20515;-63
2021/01/12 09:43:43;;;;;;;5.53;3.47;;;1.20;99.90;;;;;;5052213;28;20410;-62
2021/01/12 09:46:10;;;;;;;5.47;3.10;;;1.10;99.90;;;;;;5053493;28;20409;-63
2021/01/12 09:48:37;;;;;;;7.23;5.13;;;1.10;99.90;;;;;;5035496;28;20492;-62
2021/01/12 09:51:03;;;;;;;5.73;3.20;;;1.10;99.90;;;;;;5053187;28;21017;-64
2021/01/12 09:53:29;;;;;;;6.33;4.20;;;1.20;99.90;;;;;;5053314;28;20417;-64
2021/01/12 09:55:56;;;;;;;4.40;2.43;;;1.20;99.90;;;;;;5053136;28;20475;-63
2021/01/12 09:58:22;;;;;;;6.70;4.23;;;1.10;99.90;;;;;;5053129;28;20167;-63
2021/01/12 10:00:47;;;;;;;4.17;2.57;;;1.20;99.90;;;;;;5052396;28;20453;-63
2021/01/12 10:03:13;;;;;;;5.63;4.33;;;1.20;99.90;;;;;;5052401;28;20261;-62
2021/01/12 10:05:39;;;;;;;5.50;2.87;;;1.20;99.90;;;;;;5053282;28;20693;-63
2021/01/12 10:08:05;;;;;;;4.23;2.43;;;1.20;99.90;;;;;;5052810;28;20233;-62
2021/01/12 10:10:31;;;;;;;2.73;2.27;;;1.20;99.90;;;;;;5053143;28;20414;-63
2021/01/12 10:12:57;;;;;;;3.50;2.40;;;1.20;99.90;;;;;;5053020;28;20425;-62
2021/01/12 10:15:23;;;;;;;1.93;1.43;;;1.20;99.90;;;;;;5053394;28;20849;-62
2021/01/12 10:17:48;;;;;;;2.37;1.47;;;1.20;99.90;;;;;;5052986;28;20179;-63
2021/01/12 10:20:14;;;;;;;3.47;2.70;;;1.30;99.90;;;;;;5052664;28;20194;-64
2021/01/12 10:22:40;;;;;;;2.20;1.77;;;1.20;99.90;;;;;;5052883;28;20178;-64
2021/01/12 10:25:06;;;;;;;4.67;3.50;;;1.30;99.90;;;;;;5052969;28;20186;-63
2021/01/12 10:27:34;;;;;;;1.73;1.63;;;1.30;99.90;;;;;;5034567;28;20253;-64
2021/01/12 10:30:01;;;;;;;2.47;2.10;;;1.30;99.90;;;;;;5051804;28;21008;-62
2021/01/12 10:32:26;;;;;;;3.57;2.80;;;1.30;99.90;;;;;;5052498;28;20421;-63
2021/01/12 10:34:52;;;;;;;2.87;2.13;;;1.30;99.90;;;;;;5052644;28;20939;-61
2021/01/12 10:37:17;;;;;;;3.20;2.07;;;1.30;99.90;;;;;;5052422;28;20167;-62
2021/01/12 10:39:43;;;;;;;2.87;2.17;;;1.40;99.90;;;;;;5052340;28;20175;-62
2021/01/12 10:42:09;;;;;;;2.20;2.00;;;1.30;99.90;;;;;;5052211;28;20198;-61
2021/01/12 10:44:35;;;;;;;1.57;1.47;;;1.40;99.90;;;;;;5052540;28;20519;-61
2021/01/12 10:47:00;;;;;;;1.60;1.20;;;1.40;99.90;;;;;;5052300;28;20252;-62
2021/01/12 10:49:26;;;;;;;2.30;2.10;;;1.40;99.90;;;;;;5052227;28;20175;-63
2021/01/12 10:52:02;;;;;;;3.30;2.20;;;1.40;99.90;;;;;;5052206;28;20179;-62
2021/01/12 10:54:28;;;;;;;2.03;1.80;;;1.40;99.90;;;;;;5052039;28;20189;-62
2021/01/12 10:56:55;;;;;;;3.57;2.27;;;1.40;99.90;;;;;;5052147;28;20406;-62
2021/01/12 10:59:20;;;;;;;2.07;1.87;;;1.40;99.90;;;;;;5051192;28;20183;-63
2021/01/12 11:01:57;;;;;;;3.87;3.43;;;1.40;99.90;;;;;;5049161;28;20460;-63
2021/01/12 11:04:23;;;;;;;4.33;3.13;;;1.40;99.90;;;;;;5052166;28;20229;-63
2021/01/12 11:06:51;;;;;;;2.47;2.07;;;1.40;99.90;;;;;;5051911;28;20449;-62
2021/01/12 11:09:20;;;;;;;2.40;1.90;;;1.40;99.90;;;;;;5051978;28;20163;-62
2021/01/12 11:11:47;;;;;;;2.63;2.00;;;1.40;99.90;;;;;;5052125;28;20426;-62
2021/01/12 11:14:18;;;;;;;2.33;1.93;;;1.40;99.90;;;;;;5051507;28;20418;-63
2021/01/12 11:16:45;;;;;;;4.30;3.43;;;1.40;99.90;;;;;;5051250;28;20413;-62
2021/01/12 11:19:11;;;;;;;2.47;1.70;;;1.40;99.90;;;;;;5051653;28;20493;-62
2021/01/12 11:21:45;;;;;;;5.27;3.50;;;1.50;99.90;;;;;;5051605;28;20480;-63
2021/01/12 11:24:13;;;;;;;2.73;2.50;;;1.50;99.90;;;;;;5051423;28;20839;-62
2021/01/12 11:26:39;;;;;;;3.50;2.67;;;1.50;99.90;;;;;;5051570;28;20398;-60
2021/01/12 11:29:05;;;;;;;3.63;2.67;;;1.50;99.90;;;;;;5050354;28;20771;-62
2021/01/12 11:31:31;;;;;;;3.33;2.77;;;1.40;99.90;;;;;;5048842;28;20414;-61
2021/01/12 11:33:57;;;;;;;3.90;3.17;;;1.50;99.90;;;;;;5050378;28;20648;-64
2021/01/12 11:36:23;;;;;;;3.03;2.63;;;1.40;99.90;;;;;;5051425;28;20512;-61
2021/01/12 11:38:48;;;;;;;3.60;3.03;;;1.40;99.90;;;;;;5051293;28;20183;-62
2021/01/12 11:41:14;;;;;;;5.90;4.40;;;1.50;99.90;;;;;;5050981;28;20207;-61
2021/01/12 11:43:40;;;;;;;6.13;4.43;;;1.40;99.90;;;;;;5051417;28;20186;-62
2021/01/12 11:46:06;;;;;;;4.47;2.60;;;1.50;99.90;;;;;;5047118;28;20171;-62
2021/01/12 11:48:32;;;;;;;5.33;3.83;;;1.50;99.90;;;;;;5031207;28;20179;-62
2021/01/12 11:50:58;;;;;;;4.40;2.87;;;1.50;99.90;;;;;;5031214;28;20419;-62
2021/01/12 11:53:24;;;;;;;10.67;5.50;;;1.60;99.90;;;;;;5031110;28;20410;-64
2021/01/12 11:55:49;;;;;;;3.90;3.03;;;1.50;99.90;;;;;;5031618;28;20176;-63
2021/01/12 11:58:15;;;;;;;4.43;3.47;;;1.60;99.90;;;;;;5031199;28;20618;-63
2021/01/12 12:00:45;;;;;;;5.30;4.30;;;1.60;99.90;;;;;;5031062;28;20696;-62
2021/01/12 12:03:10;;;;;;;4.33;3.53;;;1.60;99.90;;;;;;5031277;28;20537;-64
2021/01/12 12:05:36;;;;;;;4.13;3.40;;;1.60;99.90;;;;;;5031057;28;20472;-63
2021/01/12 12:08:01;;;;;;;7.53;4.80;;;1.60;99.90;;;;;;5043664;28;20593;-63
2021/01/12 12:10:27;;;;;;;3.80;2.27;;;1.60;99.90;;;;;;5050937;28;20174;-63
2021/01/12 12:12:54;;;;;;;5.63;4.53;;;1.60;99.90;;;;;;5050809;28;20187;-64
2021/01/12 12:15:20;;;;;;;4.97;3.97;;;1.70;99.90;;;;;;5050953;28;20206;-63
2021/01/12 12:17:46;;;;;;;4.63;3.47;;;1.60;99.90;;;;;;5035567;28;20410;-64
2021/01/12 12:20:14;;;;;;;2.33;2.00;;;1.70;99.90;;;;;;5030852;28;20431;-63
2021/01/12 12:22:40;;;;;;;2.30;2.10;;;1.60;99.90;;;;;;5031203;28;20427;-64
2021/01/12 12:25:10;;;;;;;2.80;2.40;;;1.60;99.90;;;;;;5039786;28;20425;-64
2021/01/12 12:27:36;;;;;;;2.67;2.27;;;1.60;99.90;;;;;;5044064;28;20415;-63
2021/01/12 12:30:05;;;;;;;9.87;5.30;;;1.60;99.90;;;;;;5042264;28;20454;-64
2021/01/12 12:32:31;;;;;;;5.47;4.17;;;1.60;99.90;;;;;;5050723;28;20409;-64
2021/01/12 12:34:57;;;;;;;4.37;2.60;;;1.60;99.90;;;;;;5050845;28;20888;-63
2021/01/12 12:37:23;;;;;;;5.10;3.83;;;1.60;99.90;;;;;;5032586;28;20186;-63
2021/01/12 12:39:48;;;;;;;5.23;3.90;;;1.60;99.90;;;;;;5050715;28;20434;-65
2021/01/12 12:42:14;;;;;;;3.47;3.10;;;1.60;99.90;;;;;;5050151;28;20199;-64
2021/01/12 12:44:40;;;;;;;4.37;3.30;;;1.60;99.90;;;;;;5050658;28;20324;-61
2021/01/12 12:47:06;;;;;;;3.70;3.13;;;1.60;99.90;;;;;;5050325;28;20178;-63
2021/01/12 12:49:31;;;;;;;2.50;2.07;;;1.60;99.90;;;;;;5050465;28;20530;-62